Fort Wayne, IN

12:01 AM EDT on September 01, 2015 (GMT -0400)
Hillegas Road, Ft.Wayne, IN | | Change Station
CLOSE
Current Station
Personal Weather Station
Location: Fort Wayne, IN
Elevation: 823 ft
Nearby Weather Stations

Elev 823 ft 41.10 °N, 85.19 °W | Updated 16 minutes ago

Partly Cloudy
Partly Cloudy
72.3 °F
Feels Like 72.3 °F
N
0.0
Wind Variable Wind from SW

Today
High -- | Low -- °F
--% Chance of Precip.
Yesterday
High -- | Low -- °F
Precip. -- in
7:07 AM 8:13 PM
Waning Gibbous, 92% visible
Pressure 30.08 in
Visibility 9.0 miles
Clouds Few 4500 ft
Few 25000 ft
Dew Point 71 °F
Humidity 97%
Rainfall in
Snow Depth Not available.
UV 0 out of 12
Pollen 10.30 out of 12
Air Quality Not available.
Flu Activity Not available.
METAR KFWA 010354Z 22005KT 9SM FEW045 FEW250 22/20 A3010 RMK AO2 SLP185 T02220200
Pressure 30.08 in
Visibility 9.0 miles
Clouds Few 4500 ft
Few 25000 ft
Dew Point 71 °F
Humidity 97%
Rainfall in
Snow Depth Not available.
UV 0 out of 12
Pollen 10.30 out of 12
Air Quality Not available.
Flu Activity Not available.
METAR KFWA 010354Z 22005KT 9SM FEW045 FEW250 22/20 A3010 RMK AO2 SLP185 T02220200

10-Day Weather Forecast

×

Almanac

Astronomy

Sep. 01, 2015 Rise Set
Actual Time
Civil Twilight
Nautical Twilight
Astronomical Twilight
Moon
Length of Visible Light
Length of Day
Tomorrow will be .
, % of the Moon is Illuminated

Today's Extremes

State Highs State Lows

Community

WunderPhotos

Upload Photos

1,851,477 photos uploaded!

WunderBlogs® & News

Nearby

Air Quality

  Air Quality AQ Index Pollutant
Not available.

Snow Depth

Station Depth Elevation

Earthquake Activity

City Distance Mag. Time & Date
Minimum magnitude displayed is 2.5.

Coastal Water Temperatures

Place Temperature

Stations

Nearby Weather Stations

Station Location Temp. Windchill Dew Point Humidity Wind Precip. Elev Updated Type